createdAt,value
2023-10-08T00:00:17.081Z,16.01
2023-10-08T00:02:46.074Z,15.89
2023-10-08T00:05:12.632Z,15.90
2023-10-08T00:07:39.084Z,16.05
2023-10-08T00:10:06.541Z,15.92
2023-10-08T00:12:33.169Z,16.05
2023-10-08T00:14:59.957Z,15.97
2023-10-08T00:17:28.132Z,15.98
2023-10-08T00:19:54.781Z,16.10
2023-10-08T00:22:22.401Z,15.85
2023-10-08T00:24:49.731Z,16.09
2023-10-08T00:27:16.169Z,15.97
2023-10-08T00:29:42.848Z,15.89
2023-10-08T00:32:09.776Z,15.83
2023-10-08T00:34:36.554Z,15.96
2023-10-08T00:37:02.983Z,16.02
2023-10-08T00:39:29.542Z,16.13
2023-10-08T00:41:56.305Z,15.99
2023-10-08T00:44:23.059Z,15.93
2023-10-08T00:46:49.754Z,16.11
2023-10-08T00:49:16.314Z,15.99
2023-10-08T00:51:42.760Z,16.02
2023-10-08T00:54:09.238Z,16.13
2023-10-08T00:56:38.192Z,16.29
2023-10-08T00:59:04.564Z,16.07
2023-10-08T01:01:32.202Z,15.62
2023-10-08T01:03:58.751Z,15.73
2023-10-08T01:06:25.497Z,15.93
2023-10-08T01:08:52.094Z,15.91
2023-10-08T01:11:19.046Z,15.89
2023-10-08T01:13:45.827Z,15.87
2023-10-08T01:16:12.548Z,16.11
2023-10-08T01:18:39.054Z,16.20
2023-10-08T01:21:05.679Z,15.79
2023-10-08T01:23:34.520Z,16.02
2023-10-08T01:26:01.001Z,16.08
2023-10-08T01:28:27.537Z,16.06
2023-10-08T01:30:54.950Z,15.98
2023-10-08T01:33:21.469Z,16.28
2023-10-08T01:35:48.021Z,16.31
2023-10-08T01:38:15.011Z,16.22
2023-10-08T01:40:41.575Z,16.26
2023-10-08T01:43:07.972Z,16.04
2023-10-08T01:45:34.589Z,16.16
2023-10-08T01:48:01.133Z,15.98
2023-10-08T01:50:27.653Z,16.06
2023-10-08T01:52:54.194Z,16.37
2023-10-08T01:55:20.621Z,15.86
2023-10-08T01:57:47.059Z,16.09
2023-10-08T02:00:13.536Z,16.03
2023-10-08T02:02:40.983Z,16.10
2023-10-08T02:05:08.025Z,16.03
2023-10-08T02:07:34.582Z,16.18
2023-10-08T02:10:01.035Z,16.17
2023-10-08T02:12:27.481Z,16.32
2023-10-08T02:14:53.881Z,16.16
2023-10-08T02:17:20.301Z,16.28
2023-10-08T02:19:46.781Z,16.28
2023-10-08T02:22:14.403Z,15.97
2023-10-08T02:24:41.065Z,16.09
2023-10-08T02:27:07.631Z,15.88
2023-10-08T02:29:34.052Z,15.96
2023-10-08T02:32:00.650Z,15.75
2023-10-08T02:34:27.995Z,15.89
2023-10-08T02:36:54.386Z,16.21
2023-10-08T02:39:20.856Z,16.01
2023-10-08T02:41:47.613Z,15.95
2023-10-08T02:44:14.157Z,15.98
2023-10-08T02:46:40.629Z,16.11
2023-10-08T02:49:07.241Z,15.76
2023-10-08T02:51:33.729Z,15.77
2023-10-08T02:54:00.125Z,15.99
2023-10-08T02:56:26.959Z,15.70
2023-10-08T02:58:53.410Z,15.78
2023-10-08T03:01:19.981Z,15.86
2023-10-08T03:03:48.808Z,16.05
2023-10-08T03:06:15.899Z,15.73
2023-10-08T03:08:43.109Z,15.97
2023-10-08T03:11:09.842Z,15.68
2023-10-08T03:13:36.317Z,15.85
2023-10-08T03:16:02.811Z,16.05
2023-10-08T03:18:32.110Z,16.09
2023-10-08T03:20:58.671Z,15.99
2023-10-08T03:23:25.299Z,16.04
2023-10-08T03:25:52.122Z,16.29
2023-10-08T03:28:18.502Z,15.82
2023-10-08T03:30:45.759Z,15.48
2023-10-08T03:33:12.219Z,15.75
2023-10-08T03:35:39.501Z,15.93
2023-10-08T03:38:06.609Z,15.81
2023-10-08T03:40:33.579Z,15.96
2023-10-08T03:43:00.410Z,15.97
2023-10-08T03:45:27.149Z,16.15
2023-10-08T03:47:54.030Z,15.81
2023-10-08T03:50:20.532Z,15.49
2023-10-08T03:52:47.096Z,15.70
2023-10-08T03:55:13.576Z,15.67
2023-10-08T03:57:40.489Z,15.73
2023-10-08T04:00:07.769Z,15.70
2023-10-08T04:02:34.354Z,15.71
2023-10-08T04:05:01.015Z,15.63
2023-10-08T04:07:27.625Z,15.58
2023-10-08T04:09:54.135Z,15.61
2023-10-08T04:12:20.888Z,15.55
2023-10-08T04:14:47.553Z,15.76
2023-10-08T04:17:14.081Z,16.04
2023-10-08T04:19:41.025Z,15.97
2023-10-08T04:22:07.650Z,15.86
2023-10-08T04:24:34.091Z,16.07
2023-10-08T04:27:00.541Z,15.99
2023-10-08T04:29:27.310Z,16.09
2023-10-08T04:31:53.987Z,16.22
2023-10-08T04:34:20.735Z,16.14
2023-10-08T04:36:47.241Z,16.15
2023-10-08T04:39:14.123Z,16.05
2023-10-08T04:41:40.677Z,16.18
2023-10-08T04:44:07.358Z,15.97
2023-10-08T04:46:33.869Z,15.87
2023-10-08T04:49:00.965Z,16.18
2023-10-08T04:51:27.485Z,16.14
2023-10-08T04:53:53.939Z,16.19
2023-10-08T04:56:21.595Z,16.40
2023-10-08T04:58:48.033Z,15.97
2023-10-08T05:01:14.523Z,16.31
2023-10-08T05:03:41.335Z,16.10
2023-10-08T05:06:09.931Z,16.25
2023-10-08T05:08:36.765Z,16.10
2023-10-08T05:11:03.320Z,15.85
2023-10-08T05:13:32.245Z,15.69
2023-10-08T05:15:59.012Z,15.86
2023-10-08T05:18:25.524Z,15.96
2023-10-08T05:20:52.251Z,15.73
2023-10-08T05:23:18.867Z,15.94
2023-10-08T05:25:45.864Z,16.13
2023-10-08T05:28:12.278Z,16.26
2023-10-08T05:30:39.304Z,16.04
2023-10-08T05:33:06.055Z,16.00
2023-10-08T05:35:32.853Z,16.01
2023-10-08T05:37:59.542Z,16.00
2023-10-08T05:40:26.180Z,15.98
2023-10-08T05:42:52.666Z,15.93
2023-10-08T05:45:19.074Z,15.84
2023-10-08T05:47:46.588Z,15.92
2023-10-08T05:50:13.062Z,16.10
2023-10-08T05:52:39.844Z,15.89
2023-10-08T05:55:06.678Z,16.00
2023-10-08T05:57:33.254Z,16.00
2023-10-08T05:59:59.744Z,15.76
2023-10-08T06:02:29.761Z,15.99
2023-10-08T06:04:56.549Z,15.75
2023-10-08T06:07:24.730Z,15.84
2023-10-08T06:09:54.019Z,15.70
2023-10-08T06:12:20.727Z,16.04
2023-10-08T06:14:48.144Z,16.07
2023-10-08T06:17:15.891Z,16.14
2023-10-08T06:22:22.877Z,16.23
2023-10-08T06:24:49.669Z,16.21
2023-10-08T06:27:16.454Z,15.98
2023-10-08T06:29:43.127Z,15.85
2023-10-08T06:32:09.810Z,15.97
2023-10-08T06:34:36.412Z,16.21
2023-10-08T06:37:03.017Z,15.77
2023-10-08T06:39:30.079Z,15.81
2023-10-08T06:41:56.663Z,16.07
2023-10-08T06:44:25.998Z,15.99
2023-10-08T06:47:01.071Z,16.03
2023-10-08T06:49:29.971Z,16.30
2023-10-08T06:51:56.967Z,16.06
2023-10-08T06:54:23.528Z,16.25
2023-10-08T06:56:54.409Z,15.93
2023-10-08T06:59:21.600Z,15.96
2023-10-08T07:01:48.790Z,16.34
2023-10-08T07:04:15.844Z,16.17
2023-10-08T07:06:43.300Z,16.22
2023-10-08T07:09:10.090Z,15.86
2023-10-08T07:11:39.928Z,16.10
2023-10-08T07:16:46.706Z,16.71
2023-10-08T07:19:13.194Z,15.93
2023-10-08T07:21:39.717Z,16.38
2023-10-08T07:24:06.134Z,16.45
2023-10-08T07:26:35.048Z,16.41
2023-10-08T07:29:02.565Z,16.59
2023-10-08T07:31:29.243Z,16.62
2023-10-08T07:33:55.664Z,16.47
2023-10-08T07:36:22.113Z,16.51
2023-10-08T07:38:51.068Z,16.81
2023-10-08T07:41:26.003Z,16.49
2023-10-08T07:43:52.448Z,16.79
2023-10-08T07:46:19.215Z,16.46
2023-10-08T07:48:46.091Z,16.95
2023-10-08T07:51:12.773Z,16.93
2023-10-08T07:56:20.240Z,16.83
2023-10-08T07:58:53.642Z,16.40
2023-10-08T08:04:00.960Z,16.62
2023-10-08T08:11:50.572Z,16.95
2023-10-08T08:17:00.392Z,16.70
2023-10-08T08:22:09.105Z,16.87
2023-10-08T08:27:16.042Z,16.59
2023-10-08T08:29:42.712Z,16.97
2023-10-08T08:32:09.744Z,16.62
2023-10-08T08:34:37.676Z,16.67
2023-10-08T08:37:12.002Z,16.69
2023-10-08T08:39:39.834Z,16.86
2023-10-08T08:42:08.914Z,16.53
2023-10-08T08:49:58.463Z,16.51
2023-10-08T09:00:37.513Z,15.21
2023-10-08T09:08:20.512Z,14.65
2023-10-08T09:18:55.161Z,13.87
2023-10-08T09:24:04.837Z,14.18
2023-10-08T09:26:34.006Z,14.14
2023-10-08T09:29:01.129Z,14.81
2023-10-08T09:42:09.718Z,14.32
2023-10-08T09:52:50.596Z,14.06
2023-10-08T11:35:28.720Z,12.30
2023-10-08T12:13:40.370Z,10.50
2023-10-08T12:29:49.807Z,11.08
2023-10-08T12:53:51.021Z,11.09
2023-10-08T13:31:45.570Z,12.63
2023-10-08T15:11:57.309Z,12.15
2023-10-08T15:14:24.850Z,12.36
2023-10-08T15:16:53.966Z,12.51
2023-10-08T15:19:23.405Z,12.75
2023-10-08T15:21:50.751Z,13.03
2023-10-08T15:24:18.059Z,12.79
2023-10-08T15:26:45.396Z,12.57
2023-10-08T15:29:13.170Z,12.69
2023-10-08T15:31:40.702Z,12.81
2023-10-08T15:34:13.119Z,12.35
2023-10-08T15:36:46.157Z,12.28
2023-10-08T15:39:13.745Z,12.56
2023-10-08T15:41:41.169Z,12.39
2023-10-08T15:44:09.902Z,12.68
2023-10-08T15:46:39.950Z,12.09
2023-10-08T15:49:07.312Z,12.03
2023-10-08T15:51:36.863Z,11.85
2023-10-08T15:54:05.289Z,11.92
2023-10-08T15:56:32.838Z,12.16
2023-10-08T15:59:00.197Z,11.99
2023-10-08T16:01:27.578Z,12.14
2023-10-08T16:03:55.104Z,12.10
2023-10-08T16:06:22.643Z,12.35
2023-10-08T16:08:50.042Z,12.18
2023-10-08T16:11:17.382Z,12.26
2023-10-08T16:13:44.804Z,11.96
2023-10-08T16:16:12.247Z,12.03
2023-10-08T16:18:40.247Z,11.88
2023-10-08T16:21:10.057Z,12.15
2023-10-08T16:23:37.660Z,12.05
2023-10-08T16:26:05.036Z,11.93
2023-10-08T16:28:32.286Z,11.94
2023-10-08T16:30:59.972Z,11.92
2023-10-08T16:33:27.498Z,12.00
2023-10-08T16:35:55.195Z,12.10
2023-10-08T16:38:22.682Z,12.22
2023-10-08T16:40:50.082Z,12.14
2023-10-08T16:43:17.451Z,12.01
2023-10-08T16:45:44.562Z,11.56
2023-10-08T16:48:12.382Z,11.42
2023-10-08T16:50:40.034Z,11.19
2023-10-08T16:53:08.168Z,11.44
2023-10-08T16:55:35.208Z,11.81
2023-10-08T16:58:03.190Z,11.67
2023-10-08T17:00:31.116Z,11.76
2023-10-08T17:02:58.420Z,11.70
2023-10-08T17:05:25.563Z,11.81
2023-10-08T17:07:52.764Z,11.79
2023-10-08T17:10:19.868Z,11.46
2023-10-08T17:12:46.656Z,11.12
2023-10-08T17:15:13.643Z,11.26
2023-10-08T17:17:43.121Z,10.55
2023-10-08T17:20:13.280Z,10.90
2023-10-08T17:22:43.498Z,11.43
2023-10-08T17:25:11.908Z,11.64
2023-10-08T17:27:39.185Z,11.08
2023-10-08T17:30:11.992Z,10.90
2023-10-08T17:32:39.451Z,11.40
2023-10-08T17:35:07.972Z,11.46
2023-10-08T17:37:36.045Z,11.74
2023-10-08T17:40:03.315Z,11.02
2023-10-08T17:42:32.856Z,11.32
2023-10-08T17:45:00.280Z,11.49
2023-10-08T17:47:27.683Z,11.48
2023-10-08T17:49:56.049Z,11.43
2023-10-08T17:52:24.214Z,11.48
2023-10-08T17:54:52.058Z,10.92
2023-10-08T17:57:19.506Z,11.11
2023-10-08T17:59:47.054Z,11.42
2023-10-08T18:02:18.419Z,11.37
2023-10-08T18:04:47.228Z,11.28
2023-10-08T18:07:14.768Z,11.10
2023-10-08T18:09:43.050Z,11.12
2023-10-08T18:12:13.086Z,11.32
2023-10-08T18:14:44.990Z,11.06
2023-10-08T18:17:12.487Z,11.21
2023-10-08T18:22:23.861Z,11.04
2023-10-08T18:24:52.383Z,11.13
2023-10-08T18:27:21.695Z,11.11
2023-10-08T18:29:50.587Z,11.17
2023-10-08T18:32:20.760Z,11.38
2023-10-08T18:34:48.258Z,11.53
2023-10-08T18:37:15.818Z,11.57
2023-10-08T18:39:45.445Z,11.52
2023-10-08T18:42:15.330Z,11.02
2023-10-08T18:44:45.194Z,11.19
2023-10-08T18:47:13.552Z,11.54
2023-10-08T18:49:41.068Z,11.44
2023-10-08T18:52:08.563Z,11.17
2023-10-08T18:54:37.144Z,10.92
2023-10-08T18:57:07.520Z,11.19
2023-10-08T18:59:35.521Z,11.19
2023-10-08T19:02:03.252Z,11.28
2023-10-08T19:04:32.458Z,11.24
2023-10-08T19:07:01.240Z,10.96
2023-10-08T19:09:28.823Z,11.12
2023-10-08T19:11:58.481Z,10.99
2023-10-08T19:14:26.011Z,11.38
2023-10-08T19:16:55.671Z,11.35
2023-10-08T19:19:23.489Z,11.38
2023-10-08T19:21:54.280Z,11.46
2023-10-08T19:24:21.871Z,11.51
2023-10-08T19:26:51.430Z,11.70
2023-10-08T19:29:19.513Z,11.64
2023-10-08T19:31:46.952Z,11.18
2023-10-08T19:34:16.504Z,11.44
2023-10-08T19:36:44.010Z,11.10
2023-10-08T19:39:11.959Z,11.06
2023-10-08T19:41:40.586Z,11.23
2023-10-08T19:44:07.989Z,11.25
2023-10-08T19:46:35.556Z,11.27
2023-10-08T19:49:03.017Z,11.31
2023-10-08T19:51:30.527Z,10.99
2023-10-08T19:54:00.640Z,10.99
2023-10-08T19:56:28.065Z,10.79
2023-10-08T19:58:58.608Z,11.00
2023-10-08T20:01:26.967Z,10.94
2023-10-08T20:03:54.810Z,10.47
2023-10-08T20:06:25.049Z,10.74
2023-10-08T20:08:52.393Z,10.79
2023-10-08T20:11:19.661Z,10.82
2023-10-08T20:13:46.832Z,10.57
2023-10-08T20:16:14.136Z,10.55
2023-10-08T20:18:41.464Z,10.64
2023-10-08T20:21:08.817Z,10.52
2023-10-08T20:23:36.279Z,10.81
2023-10-08T20:26:03.660Z,10.78
2023-10-08T20:28:31.138Z,11.04
2023-10-08T20:30:58.330Z,11.27
2023-10-08T20:33:25.618Z,10.85
2023-10-08T20:35:52.911Z,11.04
2023-10-08T20:38:20.988Z,11.16
2023-10-08T20:40:48.119Z,11.15
2023-10-08T20:43:15.110Z,11.04
2023-10-08T20:45:42.261Z,11.02
2023-10-08T20:48:09.430Z,11.23
2023-10-08T20:50:35.965Z,11.32
2023-10-08T20:53:03.160Z,10.89
2023-10-08T20:55:29.963Z,10.98
2023-10-08T20:57:56.456Z,10.94
2023-10-08T21:00:23.000Z,11.05
2023-10-08T21:02:49.698Z,11.07
2023-10-08T21:05:16.252Z,11.22
2023-10-08T21:07:42.699Z,11.09
2023-10-08T21:10:09.196Z,10.86
2023-10-08T21:12:35.968Z,11.10
2023-10-08T21:15:02.906Z,11.29
2023-10-08T21:17:29.370Z,11.42
2023-10-08T21:19:56.024Z,11.50
2023-10-08T21:22:22.564Z,11.64
2023-10-08T21:24:49.120Z,11.68
2023-10-08T21:27:15.589Z,11.53
2023-10-08T21:29:42.660Z,11.62
2023-10-08T21:32:09.945Z,11.23
2023-10-08T21:34:36.496Z,11.15
2023-10-08T21:37:03.971Z,10.99
2023-10-08T21:39:30.411Z,10.88
2023-10-08T21:41:56.961Z,10.77
2023-10-08T21:44:23.452Z,10.62
2023-10-08T21:46:49.901Z,10.77
2023-10-08T21:49:16.643Z,10.80
2023-10-08T21:51:43.159Z,10.86
2023-10-08T21:54:09.751Z,10.76
2023-10-08T21:56:36.217Z,10.75
2023-10-08T21:59:02.688Z,10.50
2023-10-08T22:01:29.947Z,10.79
2023-10-08T22:03:56.886Z,10.82
2023-10-08T22:06:23.745Z,10.49
2023-10-08T22:08:50.485Z,10.74
2023-10-08T22:11:17.124Z,10.62
2023-10-08T22:13:43.712Z,10.76
2023-10-08T22:16:10.135Z,10.72
2023-10-08T22:18:37.185Z,10.87
2023-10-08T22:21:03.770Z,11.06
2023-10-08T22:23:30.298Z,11.26
2023-10-08T22:25:56.690Z,11.00
2023-10-08T22:28:23.113Z,11.06
2023-10-08T22:30:50.903Z,10.99
2023-10-08T22:33:18.093Z,11.13
2023-10-08T22:35:44.619Z,11.26
2023-10-08T22:38:11.067Z,11.39
2023-10-08T22:40:37.527Z,11.44
2023-10-08T22:43:04.071Z,11.53
2023-10-08T22:45:30.578Z,11.50
2023-10-08T22:47:57.203Z,11.52
2023-10-08T22:50:23.895Z,11.47
2023-10-08T22:52:50.455Z,11.41
2023-10-08T22:55:16.872Z,11.43
2023-10-08T22:57:43.632Z,11.35
2023-10-08T23:00:10.321Z,11.29
2023-10-08T23:02:37.051Z,11.24
2023-10-08T23:05:03.916Z,11.26
2023-10-08T23:07:30.709Z,11.39
2023-10-08T23:09:57.279Z,11.43
2023-10-08T23:12:23.809Z,11.25
2023-10-08T23:14:50.890Z,11.34
2023-10-08T23:17:17.463Z,11.44
2023-10-08T23:19:43.965Z,11.34
2023-10-08T23:22:10.590Z,11.41
2023-10-08T23:24:39.254Z,11.39
2023-10-08T23:27:05.907Z,11.37
2023-10-08T23:29:32.354Z,11.43
2023-10-08T23:31:58.790Z,11.29
2023-10-08T23:34:25.264Z,11.34
2023-10-08T23:36:51.679Z,11.33
2023-10-08T23:39:18.181Z,11.45
2023-10-08T23:41:45.014Z,11.51
2023-10-08T23:44:11.537Z,11.52
2023-10-08T23:46:38.214Z,11.45
2023-10-08T23:49:06.873Z,11.40
2023-10-08T23:51:34.501Z,11.43
2023-10-08T23:54:01.008Z,11.51
2023-10-08T23:56:27.514Z,11.50
2023-10-08T23:58:53.943Z,11.54
